sensor_id;sensor_type;location;lat;lon;timestamp;P1;durP1;ratioP1;P2;durP2;ratioP2
68800;SDS011;55784;50.734;7.086;2023-07-29T00:00:32;5.30;;;1.80;;
68800;SDS011;55784;50.734;7.086;2023-07-29T00:02:58;4.43;;;1.43;;
68800;SDS011;55784;50.734;7.086;2023-07-29T00:05:23;4.80;;;1.52;;
68800;SDS011;55784;50.734;7.086;2023-07-29T00:07:48;5.20;;;1.60;;
68800;SDS011;55784;50.734;7.086;2023-07-29T00:10:14;4.60;;;1.60;;
68800;SDS011;55784;50.734;7.086;2023-07-29T00:12:39;4.47;;;1.43;;
68800;SDS011;55784;50.734;7.086;2023-07-29T00:15:05;4.77;;;1.60;;
68800;SDS011;55784;50.734;7.086;2023-07-29T00:17:30;4.75;;;1.30;;
68800;SDS011;55784;50.734;7.086;2023-07-29T00:19:56;4.87;;;1.60;;
68800;SDS011;55784;50.734;7.086;2023-07-29T00:22:21;4.53;;;1.60;;
68800;SDS011;55784;50.734;7.086;2023-07-29T00:24:51;6.00;;;1.70;;
68800;SDS011;55784;50.734;7.086;2023-07-29T00:27:19;5.63;;;1.70;;
68800;SDS011;55784;50.734;7.086;2023-07-29T00:29:45;4.20;;;1.40;;
68800;SDS011;55784;50.734;7.086;2023-07-29T00:32:10;4.10;;;1.40;;
68800;SDS011;55784;50.734;7.086;2023-07-29T00:34:35;5.00;;;1.50;;
68800;SDS011;55784;50.734;7.086;2023-07-29T00:37:00;4.13;;;1.30;;
68800;SDS011;55784;50.734;7.086;2023-07-29T00:39:26;4.43;;;1.43;;
68800;SDS011;55784;50.734;7.086;2023-07-29T00:41:51;4.63;;;1.30;;
68800;SDS011;55784;50.734;7.086;2023-07-29T00:44:17;4.27;;;1.37;;
68800;SDS011;55784;50.734;7.086;2023-07-29T00:46:42;4.13;;;1.20;;
68800;SDS011;55784;50.734;7.086;2023-07-29T00:49:10;3.53;;;1.20;;
68800;SDS011;55784;50.734;7.086;2023-07-29T00:51:36;5.47;;;1.37;;
68800;SDS011;55784;50.734;7.086;2023-07-29T00:54:01;3.67;;;1.33;;
68800;SDS011;55784;50.734;7.086;2023-07-29T00:56:27;5.35;;;1.27;;
68800;SDS011;55784;50.734;7.086;2023-07-29T00:58:55;4.00;;;1.30;;
68800;SDS011;55784;50.734;7.086;2023-07-29T01:01:25;5.18;;;1.40;;
68800;SDS011;55784;50.734;7.086;2023-07-29T01:03:50;4.20;;;1.30;;
68800;SDS011;55784;50.734;7.086;2023-07-29T01:08:46;4.78;;;1.40;;
68800;SDS011;55784;50.734;7.086;2023-07-29T01:14:03;3.72;;;1.33;;
68800;SDS011;55784;50.734;7.086;2023-07-29T01:16:35;4.35;;;1.20;;
68800;SDS011;55784;50.734;7.086;2023-07-29T01:19:06;5.20;;;1.30;;
68800;SDS011;55784;50.734;7.086;2023-07-29T01:21:55;4.28;;;1.23;;
68800;SDS011;55784;50.734;7.086;2023-07-29T01:24:21;4.18;;;1.30;;
68800;SDS011;55784;50.734;7.086;2023-07-29T01:26:49;4.20;;;1.30;;
68800;SDS011;55784;50.734;7.086;2023-07-29T01:29:14;3.90;;;1.30;;
68800;SDS011;55784;50.734;7.086;2023-07-29T01:31:42;5.57;;;1.23;;
68800;SDS011;55784;50.734;7.086;2023-07-29T01:34:10;4.50;;;1.30;;
68800;SDS011;55784;50.734;7.086;2023-07-29T01:36:40;4.60;;;1.40;;
68800;SDS011;55784;50.734;7.086;2023-07-29T01:39:07;6.07;;;1.40;;
68800;SDS011;55784;50.734;7.086;2023-07-29T01:41:36;4.72;;;1.40;;
68800;SDS011;55784;50.734;7.086;2023-07-29T01:44:05;4.68;;;1.30;;
68800;SDS011;55784;50.734;7.086;2023-07-29T01:46:34;4.78;;;1.40;;
68800;SDS011;55784;50.734;7.086;2023-07-29T01:49:01;3.63;;;1.10;;
68800;SDS011;55784;50.734;7.086;2023-07-29T01:51:27;4.68;;;1.40;;
68800;SDS011;55784;50.734;7.086;2023-07-29T01:53:52;4.40;;;1.50;;
68800;SDS011;55784;50.734;7.086;2023-07-29T01:56:18;3.80;;;1.30;;
68800;SDS011;55784;50.734;7.086;2023-07-29T01:58:43;4.70;;;1.50;;
68800;SDS011;55784;50.734;7.086;2023-07-29T02:01:11;4.45;;;1.40;;
68800;SDS011;55784;50.734;7.086;2023-07-29T02:03:37;4.80;;;1.40;;
68800;SDS011;55784;50.734;7.086;2023-07-29T02:06:02;4.53;;;1.20;;
68800;SDS011;55784;50.734;7.086;2023-07-29T02:08:28;4.00;;;1.23;;
68800;SDS011;55784;50.734;7.086;2023-07-29T02:10:53;4.00;;;1.30;;
68800;SDS011;55784;50.734;7.086;2023-07-29T02:13:18;3.50;;;1.13;;
68800;SDS011;55784;50.734;7.086;2023-07-29T02:15:44;3.77;;;1.20;;
68800;SDS011;55784;50.734;7.086;2023-07-29T02:18:09;3.70;;;1.20;;
68800;SDS011;55784;50.734;7.086;2023-07-29T02:20:34;3.83;;;1.20;;
68800;SDS011;55784;50.734;7.086;2023-07-29T02:22:59;5.30;;;1.20;;
68800;SDS011;55784;50.734;7.086;2023-07-29T02:25:25;4.80;;;1.27;;
68800;SDS011;55784;50.734;7.086;2023-07-29T02:27:50;3.93;;;1.10;;
68800;SDS011;55784;50.734;7.086;2023-07-29T02:30:15;4.70;;;1.10;;
68800;SDS011;55784;50.734;7.086;2023-07-29T02:32:41;4.07;;;1.30;;
68800;SDS011;55784;50.734;7.086;2023-07-29T02:35:06;3.92;;;1.23;;
68800;SDS011;55784;50.734;7.086;2023-07-29T02:37:31;4.83;;;1.20;;
68800;SDS011;55784;50.734;7.086;2023-07-29T02:39:57;5.07;;;1.20;;
68800;SDS011;55784;50.734;7.086;2023-07-29T02:42:22;4.83;;;1.20;;
68800;SDS011;55784;50.734;7.086;2023-07-29T02:44:47;4.07;;;1.20;;
68800;SDS011;55784;50.734;7.086;2023-07-29T02:47:13;4.33;;;1.23;;
68800;SDS011;55784;50.734;7.086;2023-07-29T02:49:38;4.47;;;1.40;;
68800;SDS011;55784;50.734;7.086;2023-07-29T02:52:03;4.22;;;1.25;;
68800;SDS011;55784;50.734;7.086;2023-07-29T02:54:29;5.33;;;1.30;;
68800;SDS011;55784;50.734;7.086;2023-07-29T02:56:54;4.40;;;1.40;;
68800;SDS011;55784;50.734;7.086;2023-07-29T02:59:19;4.07;;;1.43;;
68800;SDS011;55784;50.734;7.086;2023-07-29T03:01:45;4.50;;;1.40;;
68800;SDS011;55784;50.734;7.086;2023-07-29T03:04:10;5.47;;;1.50;;
68800;SDS011;55784;50.734;7.086;2023-07-29T03:06:38;3.83;;;1.20;;
68800;SDS011;55784;50.734;7.086;2023-07-29T03:09:03;3.37;;;1.03;;
68800;SDS011;55784;50.734;7.086;2023-07-29T03:11:28;4.63;;;0.95;;
68800;SDS011;55784;50.734;7.086;2023-07-29T03:13:54;3.17;;;0.83;;
68800;SDS011;55784;50.734;7.086;2023-07-29T03:16:19;3.87;;;0.90;;
68800;SDS011;55784;50.734;7.086;2023-07-29T03:18:44;4.40;;;1.00;;
68800;SDS011;55784;50.734;7.086;2023-07-29T03:21:10;2.90;;;0.70;;
68800;SDS011;55784;50.734;7.086;2023-07-29T03:23:36;3.00;;;0.80;;
68800;SDS011;55784;50.734;7.086;2023-07-29T03:26:02;3.95;;;0.80;;
68800;SDS011;55784;50.734;7.086;2023-07-29T03:28:35;3.35;;;0.68;;
68800;SDS011;55784;50.734;7.086;2023-07-29T03:31:02;2.80;;;0.80;;
68800;SDS011;55784;50.734;7.086;2023-07-29T03:33:27;3.97;;;0.70;;
68800;SDS011;55784;50.734;7.086;2023-07-29T03:35:53;2.43;;;0.60;;
68800;SDS011;55784;50.734;7.086;2023-07-29T03:38:18;3.63;;;0.90;;
68800;SDS011;55784;50.734;7.086;2023-07-29T03:40:43;3.10;;;0.80;;
68800;SDS011;55784;50.734;7.086;2023-07-29T03:43:09;3.37;;;0.70;;
68800;SDS011;55784;50.734;7.086;2023-07-29T03:45:35;3.80;;;0.80;;
68800;SDS011;55784;50.734;7.086;2023-07-29T03:48:01;3.40;;;0.70;;
68800;SDS011;55784;50.734;7.086;2023-07-29T03:50:28;3.20;;;0.63;;
68800;SDS011;55784;50.734;7.086;2023-07-29T03:52:54;2.83;;;0.70;;
68800;SDS011;55784;50.734;7.086;2023-07-29T03:55:20;2.38;;;0.63;;
68800;SDS011;55784;50.734;7.086;2023-07-29T03:57:45;2.57;;;0.63;;
68800;SDS011;55784;50.734;7.086;2023-07-29T04:00:11;3.42;;;0.70;;
68800;SDS011;55784;50.734;7.086;2023-07-29T04:02:36;3.67;;;0.70;;
68800;SDS011;55784;50.734;7.086;2023-07-29T04:05:02;3.38;;;0.80;;
68800;SDS011;55784;50.734;7.086;2023-07-29T04:07:28;2.90;;;0.60;;
68800;SDS011;55784;50.734;7.086;2023-07-29T04:09:54;2.90;;;0.80;;
68800;SDS011;55784;50.734;7.086;2023-07-29T04:12:19;3.17;;;0.70;;
68800;SDS011;55784;50.734;7.086;2023-07-29T04:14:46;3.55;;;0.70;;
68800;SDS011;55784;50.734;7.086;2023-07-29T04:17:11;3.53;;;0.77;;
68800;SDS011;55784;50.734;7.086;2023-07-29T04:19:37;3.83;;;0.80;;
68800;SDS011;55784;50.734;7.086;2023-07-29T04:22:02;4.60;;;0.83;;
68800;SDS011;55784;50.734;7.086;2023-07-29T04:24:27;3.33;;;0.80;;
68800;SDS011;55784;50.734;7.086;2023-07-29T04:26:53;4.10;;;0.90;;
68800;SDS011;55784;50.734;7.086;2023-07-29T04:29:18;4.63;;;0.90;;
68800;SDS011;55784;50.734;7.086;2023-07-29T04:31:43;4.97;;;1.07;;
68800;SDS011;55784;50.734;7.086;2023-07-29T04:34:09;4.87;;;0.90;;
68800;SDS011;55784;50.734;7.086;2023-07-29T04:36:34;4.07;;;0.87;;
68800;SDS011;55784;50.734;7.086;2023-07-29T04:38:59;2.70;;;0.70;;
68800;SDS011;55784;50.734;7.086;2023-07-29T04:41:25;3.13;;;0.77;;
68800;SDS011;55784;50.734;7.086;2023-07-29T04:43:50;3.87;;;1.00;;
68800;SDS011;55784;50.734;7.086;2023-07-29T04:46:15;3.30;;;0.90;;
68800;SDS011;55784;50.734;7.086;2023-07-29T04:48:41;3.93;;;0.93;;
68800;SDS011;55784;50.734;7.086;2023-07-29T04:51:06;3.40;;;0.80;;
68800;SDS011;55784;50.734;7.086;2023-07-29T04:53:32;6.03;;;1.00;;
68800;SDS011;55784;50.734;7.086;2023-07-29T04:55:58;3.27;;;0.90;;
68800;SDS011;55784;50.734;7.086;2023-07-29T04:58:23;4.07;;;1.05;;
68800;SDS011;55784;50.734;7.086;2023-07-29T05:00:48;4.33;;;1.13;;
68800;SDS011;55784;50.734;7.086;2023-07-29T05:03:14;5.03;;;1.00;;
68800;SDS011;55784;50.734;7.086;2023-07-29T05:05:39;2.58;;;0.80;;
68800;SDS011;55784;50.734;7.086;2023-07-29T05:08:05;4.00;;;1.10;;
68800;SDS011;55784;50.734;7.086;2023-07-29T05:10:30;2.40;;;0.80;;
68800;SDS011;55784;50.734;7.086;2023-07-29T05:12:55;3.20;;;0.90;;
68800;SDS011;55784;50.734;7.086;2023-07-29T05:15:20;4.00;;;1.00;;
68800;SDS011;55784;50.734;7.086;2023-07-29T05:17:46;4.37;;;1.13;;
68800;SDS011;55784;50.734;7.086;2023-07-29T05:20:11;4.20;;;1.00;;
68800;SDS011;55784;50.734;7.086;2023-07-29T05:22:37;4.50;;;1.20;;
68800;SDS011;55784;50.734;7.086;2023-07-29T05:25:02;4.20;;;1.17;;
68800;SDS011;55784;50.734;7.086;2023-07-29T05:27:28;3.73;;;1.00;;
68800;SDS011;55784;50.734;7.086;2023-07-29T05:29:53;5.10;;;1.20;;
68800;SDS011;55784;50.734;7.086;2023-07-29T05:32:18;4.53;;;0.90;;
68800;SDS011;55784;50.734;7.086;2023-07-29T05:34:44;4.97;;;1.40;;
68800;SDS011;55784;50.734;7.086;2023-07-29T05:37:10;4.70;;;1.10;;
68800;SDS011;55784;50.734;7.086;2023-07-29T05:39:35;3.80;;;0.93;;
68800;SDS011;55784;50.734;7.086;2023-07-29T05:42:00;4.85;;;1.17;;
68800;SDS011;55784;50.734;7.086;2023-07-29T05:44:27;4.87;;;1.20;;
68800;SDS011;55784;50.734;7.086;2023-07-29T05:46:53;5.00;;;1.02;;
68800;SDS011;55784;50.734;7.086;2023-07-29T05:49:18;5.00;;;1.00;;
68800;SDS011;55784;50.734;7.086;2023-07-29T05:51:43;5.47;;;1.10;;
68800;SDS011;55784;50.734;7.086;2023-07-29T05:54:09;4.37;;;1.00;;
68800;SDS011;55784;50.734;7.086;2023-07-29T05:56:34;5.23;;;1.20;;
68800;SDS011;55784;50.734;7.086;2023-07-29T05:58:59;3.83;;;1.10;;
68800;SDS011;55784;50.734;7.086;2023-07-29T06:01:25;3.97;;;1.10;;
68800;SDS011;55784;50.734;7.086;2023-07-29T06:03:51;4.00;;;1.27;;
68800;SDS011;55784;50.734;7.086;2023-07-29T06:06:16;4.67;;;1.20;;
68800;SDS011;55784;50.734;7.086;2023-07-29T06:08:41;5.13;;;1.77;;
68800;SDS011;55784;50.734;7.086;2023-07-29T06:11:07;4.77;;;1.40;;
68800;SDS011;55784;50.734;7.086;2023-07-29T06:13:32;5.60;;;1.40;;
68800;SDS011;55784;50.734;7.086;2023-07-29T06:15:58;5.87;;;1.20;;
68800;SDS011;55784;50.734;7.086;2023-07-29T06:18:23;4.40;;;1.10;;
68800;SDS011;55784;50.734;7.086;2023-07-29T06:20:49;3.80;;;1.00;;
68800;SDS011;55784;50.734;7.086;2023-07-29T06:23:15;4.07;;;1.20;;
68800;SDS011;55784;50.734;7.086;2023-07-29T06:25:40;5.78;;;1.48;;
68800;SDS011;55784;50.734;7.086;2023-07-29T06:28:06;5.83;;;1.30;;
68800;SDS011;55784;50.734;7.086;2023-07-29T06:30:31;5.40;;;1.60;;
68800;SDS011;55784;50.734;7.086;2023-07-29T06:32:56;5.23;;;1.40;;
68800;SDS011;55784;50.734;7.086;2023-07-29T06:35:21;5.63;;;1.40;;
68800;SDS011;55784;50.734;7.086;2023-07-29T06:37:47;5.80;;;1.40;;
68800;SDS011;55784;50.734;7.086;2023-07-29T06:40:12;3.97;;;1.10;;
68800;SDS011;55784;50.734;7.086;2023-07-29T06:42:37;4.40;;;1.30;;
68800;SDS011;55784;50.734;7.086;2023-07-29T06:45:04;5.30;;;1.40;;
68800;SDS011;55784;50.734;7.086;2023-07-29T06:47:30;7.57;;;2.30;;
68800;SDS011;55784;50.734;7.086;2023-07-29T06:49:55;5.43;;;1.60;;
68800;SDS011;55784;50.734;7.086;2023-07-29T06:52:21;4.25;;;1.10;;
68800;SDS011;55784;50.734;7.086;2023-07-29T06:54:46;6.50;;;1.30;;
68800;SDS011;55784;50.734;7.086;2023-07-29T06:57:11;5.00;;;1.40;;
68800;SDS011;55784;50.734;7.086;2023-07-29T06:59:36;7.10;;;2.23;;
68800;SDS011;55784;50.734;7.086;2023-07-29T07:02:02;5.33;;;1.50;;
68800;SDS011;55784;50.734;7.086;2023-07-29T07:04:27;4.67;;;1.30;;
68800;SDS011;55784;50.734;7.086;2023-07-29T07:06:53;5.13;;;1.50;;
68800;SDS011;55784;50.734;7.086;2023-07-29T07:09:19;7.67;;;1.60;;
68800;SDS011;55784;50.734;7.086;2023-07-29T07:11:44;5.38;;;1.70;;
68800;SDS011;55784;50.734;7.086;2023-07-29T07:14:09;5.00;;;1.67;;
68800;SDS011;55784;50.734;7.086;2023-07-29T07:16:35;5.53;;;1.70;;
68800;SDS011;55784;50.734;7.086;2023-07-29T07:19:01;5.72;;;1.60;;
68800;SDS011;55784;50.734;7.086;2023-07-29T07:21:27;4.67;;;1.67;;
68800;SDS011;55784;50.734;7.086;2023-07-29T07:23:52;7.03;;;1.83;;
68800;SDS011;55784;50.734;7.086;2023-07-29T07:26:18;5.27;;;1.70;;
68800;SDS011;55784;50.734;7.086;2023-07-29T07:28:43;5.93;;;1.50;;
68800;SDS011;55784;50.734;7.086;2023-07-29T07:31:08;4.87;;;1.70;;
68800;SDS011;55784;50.734;7.086;2023-07-29T07:33:33;5.50;;;1.70;;
68800;SDS011;55784;50.734;7.086;2023-07-29T07:35:59;6.23;;;1.83;;
68800;SDS011;55784;50.734;7.086;2023-07-29T07:38:24;5.00;;;1.57;;
68800;SDS011;55784;50.734;7.086;2023-07-29T07:40:56;5.80;;;2.00;;
68800;SDS011;55784;50.734;7.086;2023-07-29T07:43:22;5.35;;;1.60;;
68800;SDS011;55784;50.734;7.086;2023-07-29T07:45:48;6.28;;;1.90;;
68800;SDS011;55784;50.734;7.086;2023-07-29T07:48:13;5.13;;;1.80;;
68800;SDS011;55784;50.734;7.086;2023-07-29T07:50:39;6.17;;;1.83;;
68800;SDS011;55784;50.734;7.086;2023-07-29T07:53:04;5.65;;;1.70;;
68800;SDS011;55784;50.734;7.086;2023-07-29T07:55:30;5.60;;;1.70;;
68800;SDS011;55784;50.734;7.086;2023-07-29T07:57:55;6.73;;;1.90;;
68800;SDS011;55784;50.734;7.086;2023-07-29T08:00:20;6.93;;;1.70;;
68800;SDS011;55784;50.734;7.086;2023-07-29T08:02:46;5.30;;;1.80;;
68800;SDS011;55784;50.734;7.086;2023-07-29T08:05:11;4.90;;;1.60;;
68800;SDS011;55784;50.734;7.086;2023-07-29T08:07:36;5.20;;;1.60;;
68800;SDS011;55784;50.734;7.086;2023-07-29T08:10:02;7.20;;;1.77;;
68800;SDS011;55784;50.734;7.086;2023-07-29T08:12:27;4.80;;;1.40;;
68800;SDS011;55784;50.734;7.086;2023-07-29T08:14:52;4.50;;;1.43;;
68800;SDS011;55784;50.734;7.086;2023-07-29T08:17:18;5.47;;;1.67;;
68800;SDS011;55784;50.734;7.086;2023-07-29T08:19:43;6.17;;;2.37;;
68800;SDS011;55784;50.734;7.086;2023-07-29T08:22:08;5.20;;;1.60;;
68800;SDS011;55784;50.734;7.086;2023-07-29T08:24:34;4.68;;;1.33;;
68800;SDS011;55784;50.734;7.086;2023-07-29T08:26:59;6.53;;;1.77;;
68800;SDS011;55784;50.734;7.086;2023-07-29T08:29:24;5.53;;;1.40;;
68800;SDS011;55784;50.734;7.086;2023-07-29T08:31:50;5.10;;;1.40;;
68800;SDS011;55784;50.734;7.086;2023-07-29T08:34:16;4.57;;;1.30;;
68800;SDS011;55784;50.734;7.086;2023-07-29T08:36:42;5.70;;;1.70;;
68800;SDS011;55784;50.734;7.086;2023-07-29T08:39:07;4.13;;;1.30;;
68800;SDS011;55784;50.734;7.086;2023-07-29T08:41:44;4.07;;;1.30;;
68800;SDS011;55784;50.734;7.086;2023-07-29T08:44:22;4.43;;;1.33;;
68800;SDS011;55784;50.734;7.086;2023-07-29T08:46:51;5.63;;;1.50;;
68800;SDS011;55784;50.734;7.086;2023-07-29T08:49:18;4.60;;;1.40;;
68800;SDS011;55784;50.734;7.086;2023-07-29T08:51:48;4.90;;;1.50;;
68800;SDS011;55784;50.734;7.086;2023-07-29T08:54:14;5.73;;;1.60;;
68800;SDS011;55784;50.734;7.086;2023-07-29T08:56:40;5.47;;;1.40;;
68800;SDS011;55784;50.734;7.086;2023-07-29T08:59:07;5.72;;;1.40;;
68800;SDS011;55784;50.734;7.086;2023-07-29T09:01:33;6.43;;;1.40;;
68800;SDS011;55784;50.734;7.086;2023-07-29T09:03:58;4.20;;;1.30;;
68800;SDS011;55784;50.734;7.086;2023-07-29T09:06:24;5.05;;;1.60;;
68800;SDS011;55784;50.734;7.086;2023-07-29T09:08:51;5.93;;;2.13;;
68800;SDS011;55784;50.734;7.086;2023-07-29T09:11:18;5.13;;;1.65;;
68800;SDS011;55784;50.734;7.086;2023-07-29T09:13:44;6.75;;;2.13;;
68800;SDS011;55784;50.734;7.086;2023-07-29T09:16:09;4.37;;;1.47;;
68800;SDS011;55784;50.734;7.086;2023-07-29T09:18:35;6.13;;;1.67;;
68800;SDS011;55784;50.734;7.086;2023-07-29T09:21:00;6.43;;;1.67;;
68800;SDS011;55784;50.734;7.086;2023-07-29T09:23:26;4.53;;;1.50;;
68800;SDS011;55784;50.734;7.086;2023-07-29T09:25:59;5.00;;;1.30;;
68800;SDS011;55784;50.734;7.086;2023-07-29T09:28:29;5.05;;;1.48;;
68800;SDS011;55784;50.734;7.086;2023-07-29T09:30:58;4.53;;;1.30;;
68800;SDS011;55784;50.734;7.086;2023-07-29T09:33:25;5.93;;;1.40;;
68800;SDS011;55784;50.734;7.086;2023-07-29T09:35:51;5.47;;;1.50;;
68800;SDS011;55784;50.734;7.086;2023-07-29T09:38:16;5.47;;;1.63;;
68800;SDS011;55784;50.734;7.086;2023-07-29T09:40:42;4.50;;;1.30;;
68800;SDS011;55784;50.734;7.086;2023-07-29T09:43:10;5.43;;;1.80;;
68800;SDS011;55784;50.734;7.086;2023-07-29T09:45:37;4.30;;;1.27;;
68800;SDS011;55784;50.734;7.086;2023-07-29T09:48:03;5.30;;;1.50;;
68800;SDS011;55784;50.734;7.086;2023-07-29T09:50:30;4.73;;;1.50;;
68800;SDS011;55784;50.734;7.086;2023-07-29T09:52:55;5.05;;;1.70;;
68800;SDS011;55784;50.734;7.086;2023-07-29T09:55:25;6.40;;;1.60;;
68800;SDS011;55784;50.734;7.086;2023-07-29T09:57:58;7.37;;;1.80;;
68800;SDS011;55784;50.734;7.086;2023-07-29T10:00:29;6.35;;;1.45;;
68800;SDS011;55784;50.734;7.086;2023-07-29T10:02:55;5.85;;;1.50;;
68800;SDS011;55784;50.734;7.086;2023-07-29T10:05:22;4.35;;;1.42;;
68800;SDS011;55784;50.734;7.086;2023-07-29T10:07:51;3.85;;;1.20;;
68800;SDS011;55784;50.734;7.086;2023-07-29T10:10:16;5.80;;;1.53;;
68800;SDS011;55784;50.734;7.086;2023-07-29T10:12:42;4.40;;;1.30;;
68800;SDS011;55784;50.734;7.086;2023-07-29T10:15:08;4.60;;;1.27;;
68800;SDS011;55784;50.734;7.086;2023-07-29T10:17:35;5.47;;;1.58;;
68800;SDS011;55784;50.734;7.086;2023-07-29T10:20:02;5.38;;;1.50;;
68800;SDS011;55784;50.734;7.086;2023-07-29T10:22:31;4.07;;;1.27;;
68800;SDS011;55784;50.734;7.086;2023-07-29T10:25:02;5.45;;;1.92;;
68800;SDS011;55784;50.734;7.086;2023-07-29T10:28:14;5.72;;;1.80;;
68800;SDS011;55784;50.734;7.086;2023-07-29T10:30:29;6.07;;;1.80;;
68800;SDS011;55784;50.734;7.086;2023-07-29T10:32:56;5.18;;;1.77;;
68800;SDS011;55784;50.734;7.086;2023-07-29T10:35:24;4.60;;;1.50;;
68800;SDS011;55784;50.734;7.086;2023-07-29T10:37:50;6.70;;;1.70;;
68800;SDS011;55784;50.734;7.086;2023-07-29T10:40:18;5.75;;;1.80;;
68800;SDS011;55784;50.734;7.086;2023-07-29T10:45:37;4.82;;;1.50;;
68800;SDS011;55784;50.734;7.086;2023-07-29T10:48:10;5.20;;;1.50;;
68800;SDS011;55784;50.734;7.086;2023-07-29T10:50:36;5.50;;;1.60;;
68800;SDS011;55784;50.734;7.086;2023-07-29T10:53:02;5.77;;;2.40;;
68800;SDS011;55784;50.734;7.086;2023-07-29T10:55:31;6.10;;;2.00;;
68800;SDS011;55784;50.734;7.086;2023-07-29T11:00:55;6.03;;;1.60;;
68800;SDS011;55784;50.734;7.086;2023-07-29T11:03:20;5.30;;;1.90;;
68800;SDS011;55784;50.734;7.086;2023-07-29T11:05:49;5.63;;;1.80;;
68800;SDS011;55784;50.734;7.086;2023-07-29T11:08:17;5.00;;;1.55;;
68800;SDS011;55784;50.734;7.086;2023-07-29T11:10:43;6.40;;;1.90;;
68800;SDS011;55784;50.734;7.086;2023-07-29T11:13:09;6.40;;;1.70;;
68800;SDS011;55784;50.734;7.086;2023-07-29T11:15:36;5.30;;;1.73;;
68800;SDS011;55784;50.734;7.086;2023-07-29T11:18:04;4.45;;;1.45;;
68800;SDS011;55784;50.734;7.086;2023-07-29T11:20:53;5.88;;;1.80;;
68800;SDS011;55784;50.734;7.086;2023-07-29T11:23:18;5.90;;;1.70;;
68800;SDS011;55784;50.734;7.086;2023-07-29T11:25:44;4.80;;;1.43;;
68800;SDS011;55784;50.734;7.086;2023-07-29T11:28:10;5.13;;;1.73;;
68800;SDS011;55784;50.734;7.086;2023-07-29T11:30:36;5.23;;;1.60;;
68800;SDS011;55784;50.734;7.086;2023-07-29T11:33:04;5.75;;;1.92;;
68800;SDS011;55784;50.734;7.086;2023-07-29T11:35:29;5.47;;;1.70;;
68800;SDS011;55784;50.734;7.086;2023-07-29T11:37:54;4.57;;;1.47;;
68800;SDS011;55784;50.734;7.086;2023-07-29T11:40:22;5.70;;;1.90;;
68800;SDS011;55784;50.734;7.086;2023-07-29T11:42:50;6.35;;;1.90;;
68800;SDS011;55784;50.734;7.086;2023-07-29T11:45:17;5.10;;;1.75;;
68800;SDS011;55784;50.734;7.086;2023-07-29T11:47:43;7.20;;;4.00;;
68800;SDS011;55784;50.734;7.086;2023-07-29T11:50:09;6.15;;;1.95;;
68800;SDS011;55784;50.734;7.086;2023-07-29T11:52:43;5.47;;;1.60;;
68800;SDS011;55784;50.734;7.086;2023-07-29T11:55:11;5.00;;;1.60;;
68800;SDS011;55784;50.734;7.086;2023-07-29T11:57:38;5.32;;;1.60;;
68800;SDS011;55784;50.734;7.086;2023-07-29T12:00:04;5.05;;;1.50;;
68800;SDS011;55784;50.734;7.086;2023-07-29T12:02:31;5.45;;;1.60;;
68800;SDS011;55784;50.734;7.086;2023-07-29T12:04:57;4.80;;;1.60;;
68800;SDS011;55784;50.734;7.086;2023-07-29T12:07:23;6.57;;;1.70;;
68800;SDS011;55784;50.734;7.086;2023-07-29T12:09:49;5.27;;;1.70;;
68800;SDS011;55784;50.734;7.086;2023-07-29T12:12:15;5.07;;;1.50;;
68800;SDS011;55784;50.734;7.086;2023-07-29T12:14:43;5.00;;;1.70;;
68800;SDS011;55784;50.734;7.086;2023-07-29T12:17:09;5.70;;;1.55;;
68800;SDS011;55784;50.734;7.086;2023-07-29T12:19:38;4.28;;;1.30;;
68800;SDS011;55784;50.734;7.086;2023-07-29T12:22:05;5.17;;;1.50;;
68800;SDS011;55784;50.734;7.086;2023-07-29T12:24:36;4.63;;;1.40;;
68800;SDS011;55784;50.734;7.086;2023-07-29T12:27:03;5.32;;;1.70;;
68800;SDS011;55784;50.734;7.086;2023-07-29T12:29:28;4.30;;;1.50;;
68800;SDS011;55784;50.734;7.086;2023-07-29T12:32:00;4.95;;;1.58;;
68800;SDS011;55784;50.734;7.086;2023-07-29T12:34:27;6.03;;;1.57;;
68800;SDS011;55784;50.734;7.086;2023-07-29T12:36:54;5.47;;;1.60;;
68800;SDS011;55784;50.734;7.086;2023-07-29T12:39:25;5.25;;;1.40;;
68800;SDS011;55784;50.734;7.086;2023-07-29T12:41:53;5.13;;;1.30;;
68800;SDS011;55784;50.734;7.086;2023-07-29T12:44:23;3.83;;;1.20;;
68800;SDS011;55784;50.734;7.086;2023-07-29T12:46:49;6.87;;;1.60;;
68800;SDS011;55784;50.734;7.086;2023-07-29T12:49:15;4.83;;;1.37;;
68800;SDS011;55784;50.734;7.086;2023-07-29T12:51:40;5.32;;;1.40;;
68800;SDS011;55784;50.734;7.086;2023-07-29T12:54:06;4.20;;;1.37;;
68800;SDS011;55784;50.734;7.086;2023-07-29T12:56:32;4.65;;;1.55;;
68800;SDS011;55784;50.734;7.086;2023-07-29T12:58:58;4.60;;;1.30;;
68800;SDS011;55784;50.734;7.086;2023-07-29T13:01:24;4.45;;;1.40;;
68800;SDS011;55784;50.734;7.086;2023-07-29T13:03:50;4.57;;;1.30;;
68800;SDS011;55784;50.734;7.086;2023-07-29T13:06:16;4.00;;;1.27;;
68800;SDS011;55784;50.734;7.086;2023-07-29T13:08:42;5.40;;;1.30;;
68800;SDS011;55784;50.734;7.086;2023-07-29T13:11:08;4.50;;;1.23;;
68800;SDS011;55784;50.734;7.086;2023-07-29T13:13:33;3.63;;;1.20;;
68800;SDS011;55784;50.734;7.086;2023-07-29T13:15:59;4.87;;;1.20;;
68800;SDS011;55784;50.734;7.086;2023-07-29T13:18:24;4.47;;;1.30;;
68800;SDS011;55784;50.734;7.086;2023-07-29T13:20:50;4.28;;;1.40;;
68800;SDS011;55784;50.734;7.086;2023-07-29T13:23:15;4.10;;;1.10;;
68800;SDS011;55784;50.734;7.086;2023-07-29T13:25:41;4.73;;;1.40;;
68800;SDS011;55784;50.734;7.086;2023-07-29T13:28:06;4.75;;;1.30;;
68800;SDS011;55784;50.734;7.086;2023-07-29T13:30:32;4.57;;;1.50;;
68800;SDS011;55784;50.734;7.086;2023-07-29T13:32:58;5.97;;;1.40;;
68800;SDS011;55784;50.734;7.086;2023-07-29T13:35:23;4.43;;;1.60;;
68800;SDS011;55784;50.734;7.086;2023-07-29T13:37:48;6.50;;;1.70;;
68800;SDS011;55784;50.734;7.086;2023-07-29T13:40:14;5.57;;;1.80;;
68800;SDS011;55784;50.734;7.086;2023-07-29T13:42:39;5.77;;;1.77;;
68800;SDS011;55784;50.734;7.086;2023-07-29T13:45:05;5.63;;;1.70;;
68800;SDS011;55784;50.734;7.086;2023-07-29T13:47:30;6.18;;;1.75;;
68800;SDS011;55784;50.734;7.086;2023-07-29T13:49:56;5.27;;;1.40;;
68800;SDS011;55784;50.734;7.086;2023-07-29T13:52:21;4.90;;;1.60;;
68800;SDS011;55784;50.734;7.086;2023-07-29T13:54:46;4.43;;;1.47;;
68800;SDS011;55784;50.734;7.086;2023-07-29T13:57:12;5.38;;;1.70;;
68800;SDS011;55784;50.734;7.086;2023-07-29T13:59:37;5.03;;;1.47;;
68800;SDS011;55784;50.734;7.086;2023-07-29T14:02:05;5.70;;;1.80;;
68800;SDS011;55784;50.734;7.086;2023-07-29T14:04:32;5.00;;;1.52;;
68800;SDS011;55784;50.734;7.086;2023-07-29T14:06:57;6.38;;;1.60;;
68800;SDS011;55784;50.734;7.086;2023-07-29T14:09:22;5.57;;;1.50;;
68800;SDS011;55784;50.734;7.086;2023-07-29T14:11:48;5.03;;;1.70;;
68800;SDS011;55784;50.734;7.086;2023-07-29T14:14:13;4.90;;;1.40;;
68800;SDS011;55784;50.734;7.086;2023-07-29T14:16:38;5.73;;;1.70;;
68800;SDS011;55784;50.734;7.086;2023-07-29T14:19:04;5.37;;;1.80;;
68800;SDS011;55784;50.734;7.086;2023-07-29T14:21:29;4.95;;;1.70;;
68800;SDS011;55784;50.734;7.086;2023-07-29T14:23:55;5.43;;;1.57;;
68800;SDS011;55784;50.734;7.086;2023-07-29T14:26:20;5.50;;;1.60;;
68800;SDS011;55784;50.734;7.086;2023-07-29T14:28:45;5.10;;;1.60;;
68800;SDS011;55784;50.734;7.086;2023-07-29T14:31:11;5.85;;;1.70;;
68800;SDS011;55784;50.734;7.086;2023-07-29T14:33:36;5.60;;;1.70;;
68800;SDS011;55784;50.734;7.086;2023-07-29T14:36:02;5.43;;;1.90;;
68800;SDS011;55784;50.734;7.086;2023-07-29T14:38:28;6.45;;;1.90;;
68800;SDS011;55784;50.734;7.086;2023-07-29T14:40:54;5.93;;;2.23;;
68800;SDS011;55784;50.734;7.086;2023-07-29T14:43:21;5.05;;;1.60;;
68800;SDS011;55784;50.734;7.086;2023-07-29T14:45:47;7.22;;;1.83;;
68800;SDS011;55784;50.734;7.086;2023-07-29T14:48:12;4.83;;;1.63;;
68800;SDS011;55784;50.734;7.086;2023-07-29T14:50:37;5.07;;;1.60;;
68800;SDS011;55784;50.734;7.086;2023-07-29T14:53:03;4.77;;;1.47;;